createdAt,value
2019-05-20T00:00:33.219Z,98995.68
2019-05-20T00:03:05.510Z,99000.27
2019-05-20T00:05:37.927Z,99002.59
2019-05-20T00:08:11.920Z,98999.73
2019-05-20T00:10:44.604Z,99006.22
2019-05-20T00:13:18.927Z,99004.91
2019-05-20T00:15:51.754Z,99007.20
2019-05-20T00:18:24.058Z,99009.08
2019-05-20T00:20:56.364Z,99002.27
2019-05-20T00:23:28.684Z,99002.13
2019-05-20T00:26:02.364Z,99006.81
2019-05-20T00:28:38.149Z,99005.19
2019-05-20T00:31:11.326Z,99005.21
2019-05-20T00:33:43.566Z,99005.67
2019-05-20T00:36:15.942Z,99002.59
2019-05-20T00:39:07.585Z,99006.12
2019-05-20T00:41:43.605Z,99006.92
2019-05-20T00:44:18.971Z,99006.84
2019-05-20T00:46:51.358Z,99006.81
2019-05-20T00:49:26.688Z,99005.31
2019-05-20T00:52:00.068Z,98997.91
2019-05-20T00:54:32.288Z,98999.30
2019-05-20T00:57:04.637Z,99003.78
2019-05-20T00:59:36.926Z,99008.53
2019-05-20T01:02:09.280Z,99014.48
2019-05-20T01:04:41.549Z,99020.14
2019-05-20T01:07:14.716Z,99015.33
2019-05-20T01:09:46.916Z,99016.88
2019-05-20T01:12:19.274Z,99014.90
2019-05-20T01:14:51.523Z,99022.05
2019-05-20T01:17:23.837Z,99020.81
2019-05-20T01:19:56.068Z,99022.70
2019-05-20T01:22:28.427Z,99029.31
2019-05-20T01:25:00.698Z,99032.58
2019-05-20T01:27:33.024Z,99025.66
2019-05-20T01:30:07.145Z,99031.52
2019-05-20T01:32:39.556Z,99033.19
2019-05-20T01:35:11.782Z,99031.52
2019-05-20T01:37:44.128Z,99028.19
2019-05-20T01:40:16.711Z,99029.56
2019-05-20T01:42:49.602Z,99020.98
2019-05-20T01:45:21.951Z,99018.66
2019-05-20T01:47:54.255Z,99017.89
2019-05-20T01:50:27.497Z,99016.90
2019-05-20T01:52:59.790Z,99018.69
2019-05-20T01:55:36.391Z,99023.11
2019-05-20T01:58:14.601Z,99025.70
2019-05-20T02:00:46.928Z,99024.08
2019-05-20T02:03:30.942Z,99031.17
2019-05-20T02:06:04.605Z,99029.44
2019-05-20T02:08:38.529Z,99031.35
2019-05-20T02:11:10.786Z,99036.36
2019-05-20T02:13:55.273Z,99041.83
2019-05-20T02:16:27.581Z,99039.87
2019-05-20T02:18:59.857Z,99033.13
2019-05-20T02:21:32.160Z,99035.44
2019-05-20T02:24:04.500Z,99044.87
2019-05-20T02:26:36.803Z,99038.01
2019-05-20T02:29:09.163Z,99038.74
2019-05-20T02:31:41.436Z,99039.46
2019-05-20T02:34:15.337Z,99041.36
2019-05-20T02:36:47.589Z,99031.33
2019-05-20T02:39:19.903Z,99031.61
2019-05-20T02:41:52.160Z,99035.06
2019-05-20T02:44:24.529Z,99038.51
2019-05-20T02:46:57.809Z,99036.52
2019-05-20T02:49:30.162Z,99032.45
2019-05-20T02:52:02.465Z,99031.63
2019-05-20T02:54:35.594Z,99029.70
2019-05-20T02:57:07.807Z,99023.74
2019-05-20T02:59:40.988Z,99026.83
2019-05-20T03:02:13.257Z,99027.55
2019-05-20T03:04:45.644Z,99026.59
2019-05-20T03:07:17.922Z,99031.84
2019-05-20T03:09:50.193Z,99038.74
2019-05-20T03:12:22.474Z,99040.79
2019-05-20T03:14:54.819Z,99044.06
2019-05-20T03:17:27.089Z,99049.45
2019-05-20T03:19:59.316Z,99043.82
2019-05-20T03:22:31.677Z,99042.09
2019-05-20T03:25:04.786Z,99043.39
2019-05-20T03:27:37.219Z,99047.05
2019-05-20T03:30:10.550Z,99045.30
2019-05-20T03:32:44.749Z,99042.52
2019-05-20T03:35:17.048Z,99041.26
2019-05-20T03:37:50.612Z,99045.88
2019-05-20T03:40:23.807Z,99049.88
2019-05-20T03:42:56.055Z,99051.97
2019-05-20T03:45:28.318Z,99054.59
2019-05-20T03:48:00.929Z,99052.81
2019-05-20T03:50:34.149Z,99048.75
2019-05-20T03:53:06.580Z,99051.52
2019-05-20T03:55:38.881Z,99053.61
2019-05-20T03:58:13.632Z,99061.42
2019-05-20T04:00:47.208Z,99065.56
2019-05-20T04:03:19.509Z,99067.53
2019-05-20T04:05:52.612Z,99068.23
2019-05-20T04:08:26.736Z,99070.20
2019-05-20T04:11:00.421Z,99069.37
2019-05-20T04:13:34.813Z,99065.77
2019-05-20T04:16:07.386Z,99062.74
2019-05-20T04:18:41.329Z,99063.91
2019-05-20T04:21:13.644Z,99059.66
2019-05-20T04:23:45.953Z,99060.98
2019-05-20T04:26:18.315Z,99064.95
2019-05-20T04:28:50.659Z,99070.20
2019-05-20T04:31:23.590Z,99074.05
2019-05-20T04:33:55.908Z,99074.43
2019-05-20T04:36:28.291Z,99081.63
2019-05-20T04:39:00.608Z,99073.05
2019-05-20T04:41:35.449Z,99076.22
2019-05-20T04:44:08.238Z,99078.20
2019-05-20T04:46:40.538Z,99071.29
2019-05-20T04:49:13.766Z,99065.94
2019-05-20T04:51:47.230Z,99070.03
2019-05-20T04:54:19.528Z,99071.37
2019-05-20T04:56:52.640Z,99076.13
2019-05-20T04:59:25.041Z,99076.84
2019-05-20T05:01:57.340Z,99079.72
2019-05-20T05:04:29.650Z,99079.58
2019-05-20T05:07:02.761Z,99079.39
2019-05-20T05:09:38.092Z,99082.59
2019-05-20T05:12:10.415Z,99080.48
2019-05-20T05:14:42.776Z,99076.30
2019-05-20T05:17:15.155Z,99080.66
2019-05-20T05:19:47.498Z,99078.16
2019-05-20T05:22:20.508Z,99074.88
2019-05-20T05:24:52.897Z,99072.30
2019-05-20T05:27:25.279Z,99070.42
2019-05-20T05:29:57.558Z,99077.33
2019-05-20T05:32:36.400Z,99081.09
2019-05-20T05:35:12.759Z,99078.50
2019-05-20T05:37:45.551Z,99082.73
2019-05-20T05:40:17.834Z,99083.59
2019-05-20T05:42:51.075Z,99082.25
2019-05-20T05:45:34.238Z,99082.80
2019-05-20T05:48:06.512Z,99079.14
2019-05-20T05:50:38.962Z,99082.33
2019-05-20T05:53:12.534Z,99081.63
2019-05-20T05:55:44.851Z,99079.19
2019-05-20T05:58:17.179Z,99084.14
2019-05-20T06:00:49.482Z,99082.47
2019-05-20T06:03:22.467Z,99083.66
2019-05-20T06:06:10.628Z,99083.56
2019-05-20T06:08:45.687Z,99087.14
2019-05-20T06:11:19.018Z,99087.77
2019-05-20T06:13:52.043Z,99092.66
2019-05-20T06:16:35.791Z,99098.01
2019-05-20T06:19:09.423Z,99098.81
2019-05-20T06:21:41.035Z,99101.63
2019-05-20T06:24:13.300Z,99098.49
2019-05-20T06:26:47.056Z,99099.70
2019-05-20T06:29:19.335Z,99103.86
2019-05-20T06:31:51.731Z,99111.39
2019-05-20T06:34:24.087Z,99113.75
2019-05-20T06:37:00.199Z,99115.40
2019-05-20T06:39:32.757Z,99115.56
2019-05-20T06:42:05.672Z,99115.00
2019-05-20T06:44:51.738Z,99122.90
2019-05-20T06:47:26.474Z,99125.50
2019-05-20T06:49:58.727Z,99125.84
2019-05-20T06:52:36.188Z,99133.83
2019-05-20T06:55:10.862Z,99130.95
2019-05-20T06:57:43.407Z,99132.22
2019-05-20T07:00:36.484Z,99139.34
2019-05-20T07:03:08.783Z,99143.28
2019-05-20T07:05:41.144Z,99141.51
2019-05-20T07:08:13.455Z,99138.30
2019-05-20T07:10:47.139Z,99139.52
2019-05-20T07:13:22.561Z,99136.84
2019-05-20T07:15:56.360Z,99137.41
2019-05-20T07:18:28.705Z,99139.40
2019-05-20T07:21:01.664Z,99141.70
2019-05-20T07:23:34.801Z,99142.80
2019-05-20T07:26:07.140Z,99148.73
2019-05-20T07:28:42.037Z,99155.19
2019-05-20T07:31:14.904Z,99160.55
2019-05-20T07:33:47.347Z,99155.55
2019-05-20T07:36:21.735Z,99156.03
2019-05-20T07:38:54.147Z,99151.69
2019-05-20T07:41:27.409Z,99154.19
2019-05-20T07:43:59.918Z,99151.31
2019-05-20T07:46:33.322Z,99154.66
2019-05-20T07:49:05.742Z,99152.56
2019-05-20T07:51:40.816Z,99152.59
2019-05-20T07:54:13.344Z,99151.94
2019-05-20T07:56:46.635Z,99147.86
2019-05-20T07:59:19.137Z,99154.16
2019-05-20T08:01:52.820Z,99157.69
2019-05-20T08:04:25.192Z,99157.27
2019-05-20T08:06:57.608Z,99149.50
2019-05-20T08:09:34.609Z,99151.36
2019-05-20T08:12:07.879Z,99149.78
2019-05-20T08:14:40.163Z,99151.23
2019-05-20T08:17:13.083Z,99155.01
2019-05-20T08:19:45.442Z,99163.16
2019-05-20T08:22:18.444Z,99168.42
2019-05-20T08:24:50.712Z,99166.56
2019-05-20T08:27:23.964Z,99170.47
2019-05-20T08:29:56.336Z,99167.11
2019-05-20T08:32:29.597Z,99171.31
2019-05-20T08:35:02.638Z,99170.30
2019-05-20T08:37:45.501Z,99177.12
2019-05-20T08:40:19.139Z,99177.57
2019-05-20T08:42:51.542Z,99180.31
2019-05-20T08:45:26.935Z,99179.00
2019-05-20T08:48:01.022Z,99178.73
2019-05-20T08:50:35.060Z,99177.59
2019-05-20T08:53:09.091Z,99180.61
2019-05-20T08:55:43.148Z,99180.17
2019-05-20T08:58:15.546Z,99183.35
2019-05-20T09:00:47.836Z,99189.47
2019-05-20T09:03:20.827Z,99187.64
2019-05-20T09:06:00.629Z,99178.66
2019-05-20T09:08:33.064Z,99178.05
2019-05-20T09:11:05.379Z,99181.98
2019-05-20T09:13:37.810Z,99184.59
2019-05-20T09:16:14.303Z,99188.95
2019-05-20T09:18:46.644Z,99189.28
2019-05-20T09:21:19.044Z,99192.47
2019-05-20T09:23:51.415Z,99189.62
2019-05-20T09:26:24.624Z,99195.08
2019-05-20T09:28:57.459Z,99193.09
2019-05-20T09:31:30.615Z,99195.14
2019-05-20T09:34:03.658Z,99194.53
2019-05-20T09:36:37.011Z,99195.27
2019-05-20T09:39:09.856Z,99191.24
2019-05-20T09:41:42.810Z,99195.09
2019-05-20T09:44:15.208Z,99198.44
2019-05-20T09:46:48.262Z,99202.56
2019-05-20T09:49:24.267Z,99193.89
2019-05-20T09:52:01.529Z,99198.02
2019-05-20T09:54:39.705Z,99196.19
2019-05-20T09:57:18.272Z,99200.26
2019-05-20T09:59:58.730Z,99193.34
2019-05-20T10:05:24.447Z,99205.09
2019-05-20T10:08:04.563Z,99209.25
2019-05-20T10:10:40.014Z,99212.48
2019-05-20T10:13:16.165Z,99211.94
2019-05-20T10:19:06.501Z,99215.48
2019-05-20T10:21:53.335Z,99217.03
2019-05-20T10:24:30.777Z,99220.77
2019-05-20T10:27:22.442Z,99221.77
2019-05-20T10:29:54.884Z,99218.75
2019-05-20T10:32:27.757Z,99223.36
2019-05-20T10:35:01.036Z,99223.95
2019-05-20T10:37:33.618Z,99225.41
2019-05-20T10:40:06.100Z,99225.64
2019-05-20T10:42:38.418Z,99224.91
2019-05-20T10:45:12.204Z,99224.80
2019-05-20T10:47:44.456Z,99221.74
2019-05-20T10:50:17.464Z,99221.34
2019-05-20T10:52:50.311Z,99227.28
2019-05-20T10:55:23.864Z,99228.38
2019-05-20T10:57:57.152Z,99226.24
2019-05-20T11:00:30.370Z,99225.70
2019-05-20T11:03:03.238Z,99226.72
2019-05-20T11:05:35.654Z,99231.61
2019-05-20T11:08:08.829Z,99229.71
2019-05-20T11:10:42.710Z,99230.47
2019-05-20T11:13:15.571Z,99235.38
2019-05-20T11:15:52.713Z,99239.70
2019-05-20T11:18:27.452Z,99238.06
2019-05-20T11:21:06.447Z,99239.67
2019-05-20T11:23:38.712Z,99242.42
2019-05-20T11:26:13.984Z,99243.45
2019-05-20T11:28:47.231Z,99250.73
2019-05-20T11:31:19.622Z,99248.66
2019-05-20T11:33:51.992Z,99250.62
2019-05-20T11:36:25.063Z,99254.56
2019-05-20T11:38:59.373Z,99253.89
2019-05-20T11:41:53.253Z,99253.94
2019-05-20T11:44:28.657Z,99251.59
2019-05-20T11:47:01.598Z,99257.23
2019-05-20T11:49:35.095Z,99254.02
2019-05-20T11:52:08.271Z,99256.09
2019-05-20T11:54:42.333Z,99255.53
2019-05-20T11:57:17.028Z,99255.51
2019-05-20T11:59:49.379Z,99255.66
2019-05-20T12:02:22.558Z,99257.69
2019-05-20T12:04:56.398Z,99253.28
2019-05-20T12:07:28.677Z,99258.99
2019-05-20T12:10:02.711Z,99257.04
2019-05-20T12:12:35.830Z,99255.55
2019-05-20T12:15:08.697Z,99256.97
2019-05-20T12:17:43.817Z,99253.86
2019-05-20T12:20:18.376Z,99258.58
2019-05-20T12:22:52.352Z,99255.97
2019-05-20T12:25:24.698Z,99252.45
2019-05-20T12:27:59.624Z,99254.32
2019-05-20T12:30:34.209Z,99258.92
2019-05-20T12:33:18.334Z,99256.56
2019-05-20T12:35:51.821Z,99257.82
2019-05-20T12:38:26.388Z,99261.77
2019-05-20T12:40:58.820Z,99258.16
2019-05-20T12:43:36.208Z,99254.70
2019-05-20T12:46:09.272Z,99254.34
2019-05-20T12:48:42.059Z,99257.20
2019-05-20T12:51:14.859Z,99263.49
2019-05-20T12:53:47.982Z,99266.48
2019-05-20T12:56:21.616Z,99263.79
2019-05-20T12:58:53.977Z,99260.83
2019-05-20T13:01:26.346Z,99255.09
2019-05-20T13:03:58.750Z,99258.88
2019-05-20T13:06:31.121Z,99254.23
2019-05-20T13:09:09.369Z,99254.66
2019-05-20T13:11:42.386Z,99254.84
2019-05-20T13:14:15.820Z,99253.13
2019-05-20T13:16:48.676Z,99248.24
2019-05-20T13:19:21.059Z,99246.27
2019-05-20T13:21:53.589Z,99243.98
2019-05-20T13:24:26.903Z,99245.28
2019-05-20T13:27:00.709Z,99243.98
2019-05-20T13:29:34.600Z,99239.64
2019-05-20T13:32:06.953Z,99242.17
2019-05-20T13:34:42.482Z,99235.05
2019-05-20T13:37:16.511Z,99239.92
2019-05-20T13:39:49.569Z,99241.05
2019-05-20T13:42:22.501Z,99241.25
2019-05-20T13:44:54.947Z,99241.33
2019-05-20T13:47:27.313Z,99238.08
2019-05-20T13:49:59.792Z,99240.29
2019-05-20T13:52:32.461Z,99241.83
2019-05-20T13:55:06.030Z,99238.95
2019-05-20T13:57:39.585Z,99240.86
2019-05-20T14:00:14.813Z,99245.08
2019-05-20T14:02:47.760Z,99245.58
2019-05-20T14:05:20.841Z,99246.81
2019-05-20T14:08:02.602Z,99249.27
2019-05-20T14:10:35.061Z,99236.85
2019-05-20T14:13:08.260Z,99242.11
2019-05-20T14:15:41.813Z,99244.05
2019-05-20T14:18:15.864Z,99246.21
2019-05-20T14:20:51.481Z,99241.61
2019-05-20T14:23:24.457Z,99245.95
2019-05-20T14:25:57.461Z,99247.30
2019-05-20T14:28:31.712Z,99240.09
2019-05-20T14:31:06.674Z,99237.55
2019-05-20T14:33:39.753Z,99235.95
2019-05-20T14:36:38.007Z,99231.07
2019-05-20T14:39:11.606Z,99234.86
2019-05-20T14:41:44.041Z,99233.44
2019-05-20T14:44:18.199Z,99230.39
2019-05-20T14:46:52.184Z,99239.97
2019-05-20T14:49:26.819Z,99231.42
2019-05-20T14:51:59.887Z,99238.48
2019-05-20T14:54:32.344Z,99235.39
2019-05-20T14:57:04.657Z,99234.05
2019-05-20T14:59:40.205Z,99234.91
2019-05-20T15:02:14.018Z,99233.25
2019-05-20T15:04:48.490Z,99234.07
2019-05-20T15:07:37.408Z,99246.58
2019-05-20T15:10:26.209Z,99241.56
2019-05-20T15:12:59.219Z,99239.75
2019-05-20T15:15:35.614Z,99245.01
2019-05-20T15:18:09.506Z,99240.62
2019-05-20T15:20:41.969Z,99244.27
2019-05-20T15:23:14.283Z,99241.14
2019-05-20T15:25:48.341Z,99239.92
2019-05-20T15:28:20.709Z,99238.36
2019-05-20T15:30:53.721Z,99240.05
2019-05-20T15:33:26.089Z,99239.87
2019-05-20T15:36:01.444Z,99243.17
2019-05-20T15:38:34.778Z,99241.83
2019-05-20T15:41:07.179Z,99245.53
2019-05-20T15:43:39.757Z,99247.75
2019-05-20T15:46:15.550Z,99247.48
2019-05-20T15:48:49.444Z,99243.11
2019-05-20T15:51:27.631Z,99240.89
2019-05-20T15:54:00.963Z,99237.23
2019-05-20T15:56:37.308Z,99233.20
2019-05-20T15:59:09.717Z,99232.87
2019-05-20T16:01:44.091Z,99237.36
2019-05-20T16:04:16.527Z,99239.09
2019-05-20T16:06:48.963Z,99238.41
2019-05-20T16:09:21.339Z,99234.52
2019-05-20T16:11:53.819Z,99237.55
2019-05-20T16:14:32.442Z,99236.36
2019-05-20T16:17:05.470Z,99237.74
2019-05-20T16:19:39.302Z,99227.48
2019-05-20T16:22:13.231Z,99227.33
2019-05-20T16:24:48.954Z,99225.41
2019-05-20T16:27:23.790Z,99233.39
2019-05-20T16:30:06.295Z,99226.89
2019-05-20T16:32:39.868Z,99233.08
2019-05-20T16:35:14.927Z,99237.97
2019-05-20T16:37:48.192Z,99237.06
2019-05-20T16:40:20.591Z,99239.44
2019-05-20T16:42:56.082Z,99234.02
2019-05-20T16:45:30.296Z,99228.43
2019-05-20T16:48:04.575Z,99234.56
2019-05-20T16:50:40.062Z,99231.23
2019-05-20T16:53:19.856Z,99234.65
2019-05-20T16:55:53.076Z,99234.20
2019-05-20T16:58:26.107Z,99240.74
2019-05-20T17:00:58.515Z,99237.90
2019-05-20T17:03:31.732Z,99249.01
2019-05-20T17:06:06.291Z,99245.18
2019-05-20T17:08:38.846Z,99250.86
2019-05-20T17:11:11.854Z,99253.25
2019-05-20T17:13:46.300Z,99256.56
2019-05-20T17:16:21.339Z,99262.00
2019-05-20T17:18:54.742Z,99265.62
2019-05-20T17:21:27.689Z,99261.48
2019-05-20T17:24:00.811Z,99267.52
2019-05-20T17:26:34.766Z,99262.70
2019-05-20T17:29:11.932Z,99264.30
2019-05-20T17:31:44.417Z,99254.09
2019-05-20T17:34:17.482Z,99251.80
2019-05-20T17:36:52.260Z,99250.31
2019-05-20T17:39:25.268Z,99252.00
2019-05-20T17:42:02.025Z,99248.38
2019-05-20T17:44:36.002Z,99245.61
2019-05-20T17:47:09.537Z,99250.03
2019-05-20T17:49:42.080Z,99243.97
2019-05-20T17:52:15.477Z,99255.27
2019-05-20T17:54:49.835Z,99255.42
2019-05-20T17:57:25.420Z,99258.03
2019-05-20T17:59:58.916Z,99265.52
2019-05-20T18:02:32.065Z,99270.71
2019-05-20T18:05:09.541Z,99281.97
2019-05-20T18:07:46.781Z,99280.97
2019-05-20T18:10:24.836Z,99287.24
2019-05-20T18:13:02.263Z,99291.09
2019-05-20T18:15:36.409Z,99294.88
2019-05-20T18:18:09.675Z,99296.36
2019-05-20T18:20:42.366Z,99299.21
2019-05-20T18:23:17.928Z,99297.13
2019-05-20T18:25:52.456Z,99297.13
2019-05-20T18:28:24.877Z,99298.80
2019-05-20T18:30:58.218Z,99297.98
2019-05-20T18:33:31.645Z,99298.89
2019-05-20T18:36:06.899Z,99299.81
2019-05-20T18:38:41.459Z,99299.70
2019-05-20T18:41:15.134Z,99297.97
2019-05-20T18:43:50.356Z,99291.56
2019-05-20T18:46:25.308Z,99295.58
2019-05-20T18:48:58.631Z,99299.80
2019-05-20T18:51:32.463Z,99296.91
2019-05-20T18:54:04.980Z,99297.36
2019-05-20T18:56:42.088Z,99300.98
2019-05-20T18:59:15.472Z,99298.74
2019-05-20T19:02:03.877Z,99304.34
2019-05-20T19:04:38.812Z,99298.75
2019-05-20T19:07:12.010Z,99296.58
2019-05-20T19:09:45.043Z,99301.92
2019-05-20T19:12:17.469Z,99294.65
2019-05-20T19:14:50.734Z,99294.55
2019-05-20T19:17:23.513Z,99293.25
2019-05-20T19:19:56.124Z,99294.23
2019-05-20T19:22:28.525Z,99296.57
2019-05-20T19:25:06.919Z,99302.78
2019-05-20T19:27:39.928Z,99302.16
2019-05-20T19:30:15.812Z,99305.64
2019-05-20T19:32:49.271Z,99309.55
2019-05-20T19:35:23.331Z,99301.75
2019-05-20T19:38:00.229Z,99301.31
2019-05-20T19:40:32.663Z,99300.06
2019-05-20T19:43:05.643Z,99305.48
2019-05-20T19:45:38.321Z,99305.70
2019-05-20T19:48:12.480Z,99304.69
2019-05-20T19:50:47.490Z,99311.11
2019-05-20T19:53:21.285Z,99312.52
2019-05-20T19:55:55.802Z,99316.52
2019-05-20T19:58:29.574Z,99313.86
2019-05-20T20:01:03.392Z,99320.27
2019-05-20T20:03:39.684Z,99317.80
2019-05-20T20:06:13.133Z,99315.37
2019-05-20T20:08:46.063Z,99316.73
2019-05-20T20:11:19.918Z,99313.67
2019-05-20T20:13:52.682Z,99314.14
2019-05-20T20:16:29.010Z,99319.86
2019-05-20T20:19:07.322Z,99320.16
2019-05-20T20:21:43.496Z,99325.00
2019-05-20T20:24:18.100Z,99324.79
2019-05-20T20:26:51.460Z,99329.56
2019-05-20T20:29:25.261Z,99334.45
2019-05-20T20:32:00.026Z,99333.93
2019-05-20T20:34:33.029Z,99332.98
2019-05-20T20:37:06.938Z,99331.08
2019-05-20T20:39:40.595Z,99333.14
2019-05-20T20:42:15.954Z,99332.44
2019-05-20T20:44:49.762Z,99329.13
2019-05-20T20:47:23.116Z,99335.47
2019-05-20T20:50:03.350Z,99334.11
2019-05-20T20:52:39.759Z,99337.44
2019-05-20T20:55:13.849Z,99340.07
2019-05-20T20:57:49.533Z,99336.63
2019-05-20T21:01:04.454Z,99339.14
2019-05-20T21:03:37.269Z,99333.80
2019-05-20T21:06:16.986Z,99341.08
2019-05-20T21:08:56.745Z,99340.81
2019-05-20T21:11:36.159Z,99342.01
2019-05-20T21:14:10.023Z,99342.53
2019-05-20T21:16:44.340Z,99344.34
2019-05-20T21:19:16.793Z,99342.12
2019-05-20T21:21:49.219Z,99344.09
2019-05-20T21:24:21.608Z,99345.23
2019-05-20T21:26:54.613Z,99346.70
2019-05-20T21:29:27.085Z,99349.27
2019-05-20T21:32:01.539Z,99348.33
2019-05-20T21:34:35.253Z,99345.77
2019-05-20T21:37:10.999Z,99345.17
2019-05-20T21:39:45.632Z,99338.22
2019-05-20T21:42:21.465Z,99334.35
2019-05-20T21:44:54.427Z,99334.70
2019-05-20T21:47:26.755Z,99334.31
2019-05-20T21:50:02.022Z,99336.94
2019-05-20T21:52:35.823Z,99335.08
2019-05-20T21:55:13.022Z,99339.41
2019-05-20T21:57:46.905Z,99339.45
2019-05-20T22:00:34.132Z,99337.13
2019-05-20T22:03:07.291Z,99336.52
2019-05-20T22:05:40.318Z,99335.53
2019-05-20T22:08:12.592Z,99339.20
2019-05-20T22:10:50.754Z,99333.69
2019-05-20T22:13:23.805Z,99336.70
2019-05-20T22:15:56.134Z,99331.37
2019-05-20T22:18:28.539Z,99337.31
2019-05-20T22:21:01.000Z,99332.41
2019-05-20T22:23:44.893Z,99333.80
2019-05-20T22:26:17.176Z,99331.16
2019-05-20T22:28:50.529Z,99331.63
2019-05-20T22:31:24.429Z,99336.88
2019-05-20T22:33:56.746Z,99334.41
2019-05-20T22:36:29.044Z,99332.39
2019-05-20T22:39:02.658Z,99333.64
2019-05-20T22:41:35.061Z,99330.98
2019-05-20T22:44:07.437Z,99329.34
2019-05-20T22:46:39.843Z,99334.99
2019-05-20T22:49:12.166Z,99336.77
2019-05-20T22:51:44.540Z,99337.02
2019-05-20T22:54:16.971Z,99340.52
2019-05-20T22:56:50.858Z,99346.20
2019-05-20T22:59:23.147Z,99348.52
2019-05-20T23:01:56.294Z,99350.52
2019-05-20T23:04:30.741Z,99355.32
2019-05-20T23:07:05.939Z,99354.64
2019-05-20T23:09:38.350Z,99362.72
2019-05-20T23:12:12.108Z,99356.42
2019-05-20T23:14:44.480Z,99355.77
2019-05-20T23:17:17.041Z,99349.66
2019-05-20T23:19:50.307Z,99348.71
2019-05-20T23:22:22.666Z,99346.63
2019-05-20T23:24:54.958Z,99338.63
2019-05-20T23:27:27.245Z,99336.39
2019-05-20T23:30:04.897Z,99341.48
2019-05-20T23:32:38.503Z,99349.88
2019-05-20T23:35:10.805Z,99348.17
2019-05-20T23:37:43.126Z,99354.49
2019-05-20T23:40:15.476Z,99355.16
2019-05-20T23:42:48.908Z,99362.20
2019-05-20T23:45:21.819Z,99353.11
2019-05-20T23:47:55.886Z,99356.17
2019-05-20T23:50:28.198Z,99360.94
2019-05-20T23:53:02.042Z,99356.58
2019-05-20T23:55:34.374Z,99354.23
2019-05-20T23:58:06.684Z,99360.28
